Time;durP1;ratioP1;P1;durP2;ratioP2;P2;SDS_P1;SDS_P2;PMS_P1;PMS_P2;Temp;Humidity;BMP_temperature;BMP_pressure;BME280_temperature;BME280_humidity;BME280_pressure;Samples;Min_cycle;Max_cycle;Signal;HPM_P1;HPM_P2
2022/11/25 00:01:16;;;;;;;0.10;0.10;;;;;;;5.57;98.84;98800.09;5113298;28;20189;-59
2022/11/25 00:03:44;;;;;;;0.10;0.10;;;;;;;5.57;98.40;98805.19;5112882;28;20217;-60
2022/11/25 00:06:13;;;;;;;0.40;0.40;;;;;;;5.52;98.69;98807.16;5113351;28;20209;-58
2022/11/25 00:08:40;;;;;;;0.20;0.20;;;;;;;5.58;98.73;98804.25;5113034;28;20218;-60
2022/11/25 00:11:08;;;;;;;0.20;0.20;;;;;;;5.56;98.52;98808.63;5113111;28;20729;-58
2022/11/25 00:13:35;;;;;;;0.53;0.53;;;;;;;5.53;98.29;98824.00;5112604;28;20233;-59
2022/11/25 00:16:05;;;;;;;0.30;0.30;;;;;;;5.54;98.39;98815.50;5112842;28;20201;-60
2022/11/25 00:18:32;;;;;;;0.17;0.17;;;;;;;5.54;98.33;98815.50;5112783;27;20213;-60
2022/11/25 00:21:04;;;;;;;0.17;0.17;;;;;;;5.55;98.29;98827.25;5112766;28;20632;-58
2022/11/25 00:23:31;;;;;;;0.40;0.30;;;;;;;5.49;98.58;98832.69;5112735;28;20225;-59
2022/11/25 00:25:58;;;;;;;0.30;0.30;;;;;;;5.50;98.31;98826.72;5112450;27;20197;-58
2022/11/25 00:28:24;;;;;;;1.13;0.20;;;;;;;5.46;98.64;98837.91;5112719;28;20220;-60
2022/11/25 00:30:51;;;;;;;0.10;0.10;;;;;;;5.43;98.68;98840.63;5112429;28;20579;-58
2022/11/25 00:33:19;;;;;;;0.23;0.23;;;;;;;5.42;98.94;98841.53;5112426;28;20225;-60
2022/11/25 00:35:46;;;;;;;0.13;0.13;;;;;;;5.46;98.78;98837.91;5112580;28;20631;-58
2022/11/25 00:38:13;;;;;;;0.67;0.40;;;;;;;5.39;99.02;98831.56;5112791;28;20220;-58
2022/11/25 00:40:39;;;;;;;0.33;0.33;;;;;;;5.39;99.11;98834.09;5112454;28;20193;-60
2022/11/25 00:45:50;;;;;;;0.10;0.10;;;;;;;5.35;99.19;98842.75;5112246;28;20286;-60
2022/11/25 00:48:17;;;;;;;0.40;0.40;;;;;;;5.28;99.77;98846.53;5112127;27;20213;-59
2022/11/25 00:50:45;;;;;;;0.67;0.30;;;;;;;5.29;99.83;98843.09;5112415;28;20198;-60
2022/11/25 00:53:12;;;;;;;0.40;0.40;;;;;;;5.26;100.00;98840.72;5111912;28;20225;-60
2022/11/25 00:58:19;;;;;;;1.70;0.77;;;;;;;5.26;100.00;98845.78;5112080;28;20217;-60
2022/11/25 01:00:46;;;;;;;0.30;0.30;;;;;;;5.26;100.00;98845.78;5111757;28;20201;-60
2022/11/25 01:03:12;;;;;;;0.20;0.20;;;;;;;5.26;100.00;98840.72;5112245;28;20290;-59
2022/11/25 01:05:39;;;;;;;0.20;0.20;;;;;;;5.28;100.00;98844.00;5112110;28;20581;-60
2022/11/25 01:08:07;;;;;;;0.63;0.43;;;;;;;5.26;100.00;98843.25;5111762;28;20213;-59
2022/11/25 01:10:34;;;;;;;0.30;0.30;;;;;;;5.26;100.00;98845.78;5111852;28;20198;-58
2022/11/25 01:13:01;;;;;;;0.23;0.23;;;;;;;5.24;100.00;98842.56;5111898;28;20235;-58
2022/11/25 01:15:27;;;;;;;0.20;0.20;;;;;;;5.25;100.00;98849.25;5111797;28;20202;-59
2022/11/25 01:17:54;;;;;;;0.17;0.17;;;;;;;5.19;100.00;98861.34;5111444;28;20198;-58
2022/11/25 01:20:21;;;;;;;0.57;0.57;;;;;;;5.18;100.00;98857.19;5111537;28;20212;-58
2022/11/25 01:22:48;;;;;;;0.80;0.47;;;;;;;5.15;100.00;98849.75;5111472;28;20209;-60
2022/11/25 01:25:16;;;;;;;0.30;0.30;;;;;;;5.14;100.00;98854.88;5111566;28;20201;-58
2022/11/25 01:27:43;;;;;;;0.70;0.70;;;;;;;5.15;100.00;98854.81;5111266;27;20478;-59
2022/11/25 01:30:10;;;;;;;0.87;0.60;;;;;;;5.13;100.00;98855.78;5111414;28;20639;-60
2022/11/25 01:32:37;;;;;;;0.60;0.60;;;;;;;5.11;100.00;98863.47;5111266;28;20193;-60
2022/11/25 01:35:04;;;;;;;0.30;0.30;;;;;;;5.06;100.00;98862.91;5111465;28;20653;-60
2022/11/25 01:37:31;;;;;;;0.50;0.50;;;;;;;5.06;100.00;98867.97;5111131;28;20193;-60
2022/11/25 01:39:58;;;;;;;0.23;0.23;;;;;;;5.06;100.00;98859.53;5111021;28;20249;-60
2022/11/25 01:42:30;;;;;;;0.20;0.20;;;;;;;5.09;100.00;98859.38;5111121;28;20205;-60
2022/11/25 01:45:33;;;;;;;0.30;0.23;;;;;;;5.04;100.00;98862.16;5111023;28;20244;-58
2022/11/25 01:48:05;;;;;;;0.93;0.57;;;;;;;5.00;100.00;98855.59;5110983;28;20348;-58
2022/11/25 01:50:34;;;;;;;0.30;0.30;;;;;;;5.02;100.00;98856.34;5111393;28;20580;-59
2022/11/25 01:53:03;;;;;;;0.30;0.30;;;;;;;5.12;100.00;98860.03;5110791;28;20651;-60
2022/11/25 01:55:33;;;;;;;1.03;0.50;;;;;;;5.21;100.00;98874.75;5110763;28;20254;-60
2022/11/25 01:58:06;;;;;;;1.00;1.00;;;;;;;5.26;100.00;98873.69;5110640;28;20203;-60
2022/11/25 02:00:33;;;;;;;0.40;0.40;;;;;;;5.27;100.00;98878.69;5111108;28;20634;-60
2022/11/25 02:03:01;;;;;;;0.47;0.30;;;;;;;5.33;100.00;98885.13;5110917;28;20201;-60
2022/11/25 02:05:34;;;;;;;0.40;0.40;;;;;;;5.36;100.00;98882.44;5110584;28;20217;-60
2022/11/25 02:08:01;;;;;;;0.30;0.30;;;;;;;5.40;100.00;98878.81;5110565;28;20665;-58
2022/11/25 02:10:31;;;;;;;0.40;0.40;;;;;;;5.43;100.00;98883.72;5110550;28;20194;-59
2022/11/25 02:12:59;;;;;;;0.43;0.43;;;;;;;5.46;100.00;98886.09;5110463;28;20225;-59
2022/11/25 02:15:29;;;;;;;0.70;0.70;;;;;;;5.46;100.00;98888.63;5110516;28;20207;-60
2022/11/25 02:17:56;;;;;;;0.80;0.80;;;;;;;5.51;99.78;98894.28;5110274;28;20200;-58
2022/11/25 02:20:24;;;;;;;1.07;0.70;;;;;;;5.51;99.78;98901.88;5110305;28;20632;-60
2022/11/25 02:22:59;;;;;;;0.50;0.50;;;;;;;5.57;99.43;98898.19;5110164;28;20554;-58
2022/11/25 02:25:30;;;;;;;1.13;1.00;;;;;;;5.57;99.48;98895.66;5110402;28;20253;-60
2022/11/25 02:28:01;;;;;;;1.33;0.90;;;;;;;5.57;99.38;98898.19;5110506;28;20316;-60
2022/11/25 02:30:28;;;;;;;0.93;0.80;;;;;;;5.54;99.20;98899.19;5110419;28;20217;-58
2022/11/25 02:32:54;;;;;;;0.80;0.77;;;;;;;5.56;99.49;98904.19;5110000;28;20201;-58
2022/11/25 02:35:30;;;;;;;0.57;0.57;;;;;;;5.55;99.12;98895.72;5110436;28;20197;-59
2022/11/25 02:38:01;;;;;;;1.00;0.73;;;;;;;5.54;99.61;98890.75;5110109;28;20253;-58
2022/11/25 02:40:29;;;;;;;0.70;0.70;;;;;;;5.50;99.41;98885.03;5110539;28;20639;-58
2022/11/25 02:42:59;;;;;;;0.80;0.80;;;;;;;5.51;99.60;98891.75;5110244;28;20560;-58
2022/11/25 02:45:35;;;;;;;0.53;0.53;;;;;;;5.46;99.36;98898.78;5110255;28;20661;-60
2022/11/25 02:48:02;;;;;;;0.60;0.60;;;;;;;5.42;99.63;98897.31;5109967;28;20290;-58
2022/11/25 02:50:29;;;;;;;0.83;0.70;;;;;;;5.44;99.16;98900.59;5110149;28;20208;-58
2022/11/25 02:52:55;;;;;;;1.07;0.90;;;;;;;5.38;99.39;98896.66;5110012;28;20198;-60
2022/11/25 02:55:22;;;;;;;1.00;0.80;;;;;;;5.36;99.17;98892.56;5110237;28;20555;-60
2022/11/25 02:57:50;;;;;;;0.90;0.60;;;;;;;5.38;99.21;98890.75;5110089;28;20197;-60
2022/11/25 03:00:18;;;;;;;1.17;1.07;;;;;;;5.38;98.91;98900.91;5110339;28;20209;-58
2022/11/25 03:02:45;;;;;;;1.03;0.60;;;;;;;5.27;99.07;98898.16;5109833;28;20212;-60
2022/11/25 03:05:13;;;;;;;0.60;0.60;;;;;;;5.25;99.64;98905.00;5110202;28;20258;-58
2022/11/25 03:07:40;;;;;;;0.87;0.77;;;;;;;5.24;99.76;98913.50;5110001;28;20712;-60
2022/11/25 03:10:07;;;;;;;0.30;0.30;;;;;;;5.25;99.72;98910.06;5110059;28;20270;-58
2022/11/25 03:12:34;;;;;;;0.70;0.60;;;;;;;5.21;99.78;98910.25;5109741;28;20206;-60
2022/11/25 03:15:02;;;;;;;0.50;0.50;;;;;;;5.18;99.70;98915.47;5109806;28;20237;-58
2022/11/25 03:17:29;;;;;;;0.40;0.40;;;;;;;5.20;99.55;98921.25;5109839;28;20694;-58
2022/11/25 03:19:55;;;;;;;1.13;0.80;;;;;;;5.14;99.90;98913.97;5109808;28;20274;-58
2022/11/25 03:22:22;;;;;;;1.23;1.00;;;;;;;5.11;100.00;98918.41;5109808;28;20198;-60
2022/11/25 03:24:49;;;;;;;0.67;0.53;;;;;;;5.07;100.00;98917.75;5109841;28;20217;-60
2022/11/25 03:27:16;;;;;;;1.10;0.70;;;;;;;5.02;100.00;98924.75;5109765;28;20201;-59
2022/11/25 03:29:43;;;;;;;0.50;0.50;;;;;;;4.98;100.00;98923.31;5110616;28;20213;-60
2022/11/25 03:32:11;;;;;;;0.90;0.57;;;;;;;4.96;100.00;98917.47;5113821;28;20639;-58
2022/11/25 03:34:38;;;;;;;1.00;0.70;;;;;;;4.95;100.00;98923.47;5113402;28;20274;-60
2022/11/25 03:37:05;;;;;;;0.97;0.80;;;;;;;4.93;100.00;98923.53;5113787;28;20200;-60
2022/11/25 03:39:31;;;;;;;0.70;0.63;;;;;;;4.94;100.00;98929.41;5113588;28;20228;-59
2022/11/25 03:41:58;;;;;;;0.50;0.50;;;;;;;4.90;100.00;98925.41;5113466;28;20209;-60
2022/11/25 03:44:25;;;;;;;0.80;0.80;;;;;;;4.90;100.00;98930.47;5113341;28;20228;-58
2022/11/25 03:46:52;;;;;;;0.27;0.27;;;;;;;4.88;100.00;98928.00;5113482;28;20662;-60
2022/11/25 03:49:21;;;;;;;0.13;0.13;;;;;;;4.93;100.00;98935.38;5113508;28;20220;-60
2022/11/25 03:51:48;;;;;;;0.37;0.37;;;;;;;4.92;100.00;98938.81;5113504;28;20285;-58
2022/11/25 03:54:14;;;;;;;0.27;0.27;;;;;;;4.87;100.00;98931.44;5113153;28;20719;-58
2022/11/25 03:56:41;;;;;;;0.10;0.10;;;;;;;4.88;100.00;98940.66;5113213;28;20586;-60
2022/11/25 03:59:08;;;;;;;0.37;0.33;;;;;;;4.86;100.00;98939.09;5113126;28;20459;-59
2022/11/25 04:01:35;;;;;;;0.10;0.10;;;;;;;4.88;100.00;98952.53;5113103;28;20193;-60
2022/11/25 04:04:01;;;;;;;0.00;0.00;;;;;;;4.91;100.00;98953.19;5112877;28;20229;-58
2022/11/25 04:06:30;;;;;;;0.67;0.60;;;;;;;4.89;100.00;98955.00;5112911;28;20208;-60
2022/11/25 04:08:57;;;;;;;0.10;0.10;;;;;;;4.92;100.00;98959.09;5112863;28;20224;-60
2022/11/25 04:12:45;;;;;;;0.97;0.93;;;;;;;4.90;100.00;98961.69;5112857;28;20669;-60
2022/11/25 04:14:11;;;;;;;0.37;0.37;;;;;;;4.90;100.00;98960.88;5112838;28;20225;-58
2022/11/25 04:16:37;;;;;;;0.40;0.40;;;;;;;4.85;100.00;98962.81;5112653;28;20312;-58
2022/11/25 04:19:04;;;;;;;0.40;0.40;;;;;;;4.86;100.00;98964.44;5112677;28;20219;-59
2022/11/25 04:21:32;;;;;;;0.17;0.17;;;;;;;4.89;100.00;98964.31;5112631;28;20201;-60
2022/11/25 04:23:59;;;;;;;0.20;0.20;;;;;;;4.91;100.00;98972.63;5112496;28;20217;-60
2022/11/25 04:26:26;;;;;;;0.43;0.43;;;;;;;4.82;100.00;98973.91;5112590;28;20663;-58
2022/11/25 04:28:53;;;;;;;0.30;0.30;;;;;;;4.82;100.00;98970.56;5112773;28;20213;-58
2022/11/25 04:31:19;;;;;;;0.30;0.23;;;;;;;4.78;100.00;98972.44;5112714;28;20201;-60
2022/11/25 04:33:46;;;;;;;0.80;0.80;;;;;;;4.79;100.00;98974.06;5112337;28;20236;-60
2022/11/25 04:36:13;;;;;;;0.57;0.40;;;;;;;4.79;100.00;98973.25;5112633;27;20269;-60
2022/11/25 04:38:41;;;;;;;0.30;0.20;;;;;;;4.83;100.00;98975.56;5112083;28;20226;-58
2022/11/25 04:41:08;;;;;;;0.20;0.20;;;;;;;4.78;100.00;98986.81;5112167;28;20277;-60
2022/11/25 04:43:35;;;;;;;0.40;0.40;;;;;;;4.76;100.00;98980.09;5112152;28;20220;-58
2022/11/25 04:46:03;;;;;;;0.20;0.20;;;;;;;4.67;100.00;98974.69;5112547;28;20202;-60
2022/11/25 04:48:29;;;;;;;0.30;0.30;;;;;;;4.63;100.00;98984.16;5112084;28;20685;-59
2022/11/25 04:50:56;;;;;;;0.23;0.23;;;;;;;4.61;100.00;98991.00;5112230;28;20212;-58
2022/11/25 04:53:23;;;;;;;0.30;0.30;;;;;;;4.59;100.00;98995.31;5112131;28;20228;-60
2022/11/25 04:55:51;;;;;;;0.40;0.40;;;;;;;4.59;100.00;99000.38;5112068;28;20208;-58
2022/11/25 04:59:38;;;;;;;0.30;0.30;;;;;;;4.56;100.00;98998.00;5112083;27;20220;-60
2022/11/25 05:01:04;;;;;;;0.40;0.40;;;;;;;4.60;100.00;99004.56;5112071;28;20197;-59
2022/11/25 05:03:31;;;;;;;0.27;0.27;;;;;;;4.59;100.00;99004.63;5111743;28;20304;-60
2022/11/25 05:05:57;;;;;;;0.10;0.10;;;;;;;4.53;100.00;99014.16;5112021;28;20198;-58
2022/11/25 05:08:24;;;;;;;0.53;0.53;;;;;;;4.58;100.00;99016.47;5111430;28;20220;-58
2022/11/25 05:10:52;;;;;;;0.60;0.40;;;;;;;4.54;100.00;99015.81;5111627;28;20204;-58
2022/11/25 05:13:19;;;;;;;0.50;0.50;;;;;;;4.55;100.00;99019.16;5111618;28;20632;-60
2022/11/25 05:15:46;;;;;;;0.70;0.70;;;;;;;4.52;100.00;99031.97;5111488;28;20767;-60
2022/11/25 05:18:12;;;;;;;0.30;0.30;;;;;;;4.54;100.00;99027.66;5111828;28;20217;-60
2022/11/25 05:20:39;;;;;;;0.67;0.40;;;;;;;4.57;100.00;99035.09;5111681;28;20208;-58
2022/11/25 05:23:06;;;;;;;0.67;0.67;;;;;;;4.58;100.00;99026.59;5111585;28;20596;-58
2022/11/25 05:25:33;;;;;;;0.33;0.33;;;;;;;4.61;100.00;99034.03;5111503;28;20212;-58
2022/11/25 05:28:01;;;;;;;0.47;0.47;;;;;;;4.54;100.00;99040.31;5111169;28;20876;-59
2022/11/25 05:30:28;;;;;;;0.10;0.10;;;;;;;4.54;100.00;99035.25;5111534;28;20227;-60
2022/11/25 05:32:54;;;;;;;1.53;0.77;;;;;;;4.57;100.00;99050.28;5111167;28;20564;-59
2022/11/25 05:35:21;;;;;;;0.67;0.67;;;;;;;4.56;100.00;99045.28;5111333;28;20649;-60
2022/11/25 05:37:48;;;;;;;0.30;0.30;;;;;;;4.58;100.00;99046.84;5110997;28;20704;-59
2022/11/25 05:40:15;;;;;;;0.40;0.40;;;;;;;4.58;100.00;99051.91;5111264;28;20230;-59
2022/11/25 05:42:42;;;;;;;0.50;0.50;;;;;;;4.54;100.00;99050.44;5111261;28;20228;-58
2022/11/25 05:45:11;;;;;;;0.60;0.60;;;;;;;4.56;100.00;99061.28;5111352;28;20275;-60
2022/11/25 05:47:37;;;;;;;0.53;0.53;;;;;;;4.63;100.00;99070.25;5111151;28;20196;-58
2022/11/25 05:50:05;;;;;;;0.40;0.40;;;;;;;4.65;100.00;99073.50;5110897;28;20221;-58
2022/11/25 05:52:32;;;;;;;0.73;0.73;;;;;;;4.65;100.00;99082.81;5110672;28;20441;-58
2022/11/25 05:54:59;;;;;;;0.57;0.57;;;;;;;4.64;100.00;99076.94;5110110;28;20749;-60
2022/11/25 05:57:27;;;;;;;0.30;0.30;;;;;;;4.68;100.00;99083.53;5110959;28;20200;-59
2022/11/25 05:59:54;;;;;;;1.00;0.90;;;;;;;4.74;100.00;99090.81;5110687;28;20311;-60
2022/11/25 06:02:22;;;;;;;1.10;1.00;;;;;;;4.78;100.00;99094.00;5110884;28;20208;-60
2022/11/25 06:04:49;;;;;;;0.70;0.60;;;;;;;4.87;100.00;99097.81;5110582;28;20225;-58
2022/11/25 06:07:15;;;;;;;0.93;0.73;;;;;;;4.93;100.00;99107.66;5110769;28;20204;-58
2022/11/25 06:09:42;;;;;;;1.00;0.90;;;;;;;5.00;100.00;99108.97;5110416;28;20217;-60
2022/11/25 06:12:09;;;;;;;0.63;0.63;;;;;;;5.03;100.00;99113.88;5110865;28;20206;-59
2022/11/25 06:14:36;;;;;;;0.73;0.63;;;;;;;5.07;100.00;99109.50;5110661;28;20225;-58
2022/11/25 06:17:03;;;;;;;0.90;0.60;;;;;;;5.14;100.00;99116.72;5110494;28;20208;-58
2022/11/25 06:19:31;;;;;;;0.80;0.57;;;;;;;5.21;100.00;99122.31;5110792;28;20221;-58
2022/11/25 06:21:58;;;;;;;1.07;0.60;;;;;;;5.28;99.83;99125.38;5110629;28;20770;-60
2022/11/25 06:24:25;;;;;;;0.30;0.30;;;;;;;5.38;99.76;99119.75;5110046;28;20229;-60
2022/11/25 06:26:51;;;;;;;0.20;0.20;;;;;;;5.44;99.60;99137.19;5110247;28;20202;-58
2022/11/25 06:29:18;;;;;;;0.30;0.30;;;;;;;5.50;99.16;99136.06;5110127;28;20217;-59
2022/11/25 06:31:45;;;;;;;0.80;0.53;;;;;;;5.47;98.72;99128.63;5110295;28;20241;-58
2022/11/25 06:34:12;;;;;;;0.37;0.37;;;;;;;5.51;98.18;99145.31;5110204;28;20236;-58
2022/11/25 06:36:40;;;;;;;0.37;0.37;;;;;;;5.49;98.42;99157.25;5110314;28;20201;-58
2022/11/25 06:39:07;;;;;;;0.30;0.30;;;;;;;5.54;98.71;99147.69;5110034;28;20224;-58
2022/11/25 06:41:34;;;;;;;0.50;0.50;;;;;;;5.42;98.23;99161.00;5110312;28;20296;-58
2022/11/25 06:44:00;;;;;;;1.67;0.77;;;;;;;5.47;98.06;99159.06;5109962;28;20228;-58
2022/11/25 06:46:27;;;;;;;2.40;1.43;;;;;;;5.49;98.23;99154.69;5110305;28;20197;-58
2022/11/25 06:48:54;;;;;;;2.77;1.67;;;;;;;5.49;98.45;99162.31;5109896;28;20582;-58
2022/11/25 06:51:23;;;;;;;1.77;1.17;;;;;;;5.54;97.85;99167.16;5110315;28;20205;-59
2022/11/25 06:53:51;;;;;;;4.30;2.40;;;;;;;5.56;97.75;99173.81;5109894;28;20224;-60
2022/11/25 06:56:20;;;;;;;4.17;2.30;;;;;;;5.63;97.83;99175.13;5110112;28;20228;-58
2022/11/25 06:58:48;;;;;;;2.93;2.03;;;;;;;5.62;98.02;99173.50;5110015;28;20217;-60
2022/11/25 07:01:16;;;;;;;2.80;1.77;;;;;;;5.63;97.85;99172.59;5110089;28;20204;-59
2022/11/25 07:03:44;;;;;;;4.40;1.60;;;;;;;5.72;98.12;99170.47;5109988;28;20228;-60
2022/11/25 07:06:12;;;;;;;3.33;2.07;;;;;;;5.69;97.64;99168.91;5113397;28;20215;-59
2022/11/25 07:08:39;;;;;;;8.30;2.20;;;;;;;5.71;97.85;99179.00;5114058;28;20217;-58
2022/11/25 07:11:10;;;;;;;2.27;1.47;;;;;;;5.67;97.12;99176.63;5114490;28;20261;-59
2022/11/25 07:13:37;;;;;;;2.53;1.73;;;;;;;5.75;97.53;99175.41;5114168;28;20228;-60
2022/11/25 07:16:05;;;;;;;3.83;1.33;;;;;;;5.79;96.69;99179.41;5114027;28;20293;-60
2022/11/25 07:18:33;;;;;;;1.90;1.10;;;;;;;5.81;96.95;99183.50;5113919;28;20217;-60
2022/11/25 07:21:05;;;;;;;2.07;1.33;;;;;;;5.86;97.09;99185.81;5113867;28;20710;-60
2022/11/25 07:23:32;;;;;;;3.73;1.30;;;;;;;5.90;96.91;99182.22;5113473;28;20221;-60
2022/11/25 07:26:05;;;;;;;2.50;0.87;;;;;;;5.94;96.77;99182.94;5113860;28;20209;-59
2022/11/25 07:28:33;;;;;;;2.60;1.80;;;;;;;6.03;96.30;99188.34;5113958;28;20209;-58
2022/11/25 07:31:08;;;;;;;2.73;1.60;;;;;;;6.06;96.56;99188.19;5113381;28;20677;-58
2022/11/25 07:33:36;;;;;;;2.53;1.23;;;;;;;6.20;95.71;99191.72;5113954;28;20216;-60
2022/11/25 07:36:05;;;;;;;1.40;0.77;;;;;;;6.18;95.76;99193.53;5113821;28;20251;-58
2022/11/25 07:38:32;;;;;;;2.20;0.90;;;;;;;6.26;95.61;99193.94;5113436;28;20217;-58
2022/11/25 07:41:05;;;;;;;3.27;1.30;;;;;;;6.26;94.83;99193.94;5113377;28;20204;-61
